N35542 KBHM-
Flight info
| Callsign | N35542 |
|---|---|
| Flight time | N/A |
| Altitude | VFR |
| Route | SOUTH |
| Aircraft | C172/L-DOV/C |
Departure
| Time | 2026-04-22 00:58 |
|---|---|
| Airport | Birmingham-Shuttlesworth International Airport (KBHM) |
Arrival
| Time | N/A |
|---|---|
| Airport | - |
| Time | Latitude | Longitude | Altitude | Speed | Heading |
|---|---|---|---|---|---|
| 2026-04-22 00:57 | 33.57485 | -86.73689 | 704 ft | 55 kts | 231° |
| 2026-04-22 00:57 | 33.57231 | -86.74100 | 701 ft | 60 kts | 240° |
| 2026-04-22 00:57 | 33.57000 | -86.74509 | 638 ft | 45 kts | 236° |
| 2026-04-22 00:57 | 33.56789 | -86.74884 | 639 ft | 67 kts | 231° |
| 2026-04-22 00:58 | 33.56493 | -86.75381 | 804 ft | 70 kts | 234° |
| 2026-04-22 00:58 | 33.56212 | -86.75938 | 956 ft | 75 kts | 237° |
| 2026-04-22 00:58 | 33.55942 | -86.76540 | 1111 ft | 79 kts | 248° |
| 2026-04-22 00:58 | 33.56028 | -86.77205 | 1260 ft | 86 kts | 311° |
| 2026-04-22 00:59 | 33.56624 | -86.77549 | 1419 ft | 89 kts | 329° |
| 2026-04-22 00:59 | 33.57261 | -86.77690 | 1574 ft | 96 kts | 9° |
| 2026-04-22 00:59 | 33.57803 | -86.77111 | 1689 ft | 103 kts | 65° |
| 2026-04-22 00:59 | 33.58149 | -86.76228 | 1711 ft | 115 kts | 64° |
| 2026-04-22 01:00 | 33.58534 | -86.75302 | 1802 ft | 115 kts | 60° |
| 2026-04-22 01:00 | 33.58946 | -86.74416 | 1848 ft | 113 kts | 59° |
| 2026-04-22 01:00 | 33.59333 | -86.73566 | 1836 ft | 107 kts | 61° |
| 2026-04-22 01:00 | 33.59621 | -86.72729 | 1851 ft | 99 kts | 88° |
| 2026-04-22 01:01 | 33.59316 | -86.71950 | 1748 ft | 96 kts | 148° |
| 2026-04-22 01:01 | 33.58711 | -86.71516 | 1566 ft | 93 kts | 166° |
| 2026-04-22 01:01 | 33.58331 | -86.71970 | 1335 ft | 80 kts | 258° |
| 2026-04-22 01:01 | 33.58105 | -86.72570 | 1187 ft | 68 kts | 236° |
| 2026-04-22 01:02 | 33.57820 | -86.73067 | 1025 ft | 73 kts | 237° |
| 2026-04-22 01:02 | 33.57509 | -86.73617 | 836 ft | 78 kts | 237° |
| 2026-04-22 01:02 | 33.57190 | -86.74178 | 691 ft | 75 kts | 236° |
| 2026-04-22 01:02 | 33.56925 | -86.74642 | 635 ft | 51 kts | 234° |
| 2026-04-22 01:03 | 33.56765 | -86.74925 | 631 ft | 27 kts | 239° |
| 2026-04-22 01:03 | 33.56667 | -86.75078 | 625 ft | 11 kts | 171° |
| 2026-04-22 01:03 | 33.56621 | -86.74992 | 625 ft | 11 kts | 133° |
| 2026-04-22 01:03 | 33.56614 | -86.74983 | 624 ft | 0 kts | 133° |
| 2026-04-22 01:04 | 33.56604 | -86.74958 | 624 ft | 9 kts | 97° |
| 2026-04-22 01:04 | 33.56612 | -86.74850 | 626 ft | 13 kts | 68° |
| 2026-04-22 01:05 | 33.56663 | -86.74750 | 629 ft | 13 kts | 55° |
| 2026-04-22 01:05 | 33.56727 | -86.74638 | 630 ft | 16 kts | 56° |
| 2026-04-22 01:05 | 33.56794 | -86.74522 | 631 ft | 15 kts | 54° |
| 2026-04-22 01:05 | 33.56858 | -86.74417 | 634 ft | 13 kts | 56° |
| 2026-04-22 01:06 | 33.56859 | -86.74335 | 635 ft | 8 kts | 144° |
| 2026-04-22 01:06 | 33.56830 | -86.74290 | 636 ft | 1 kts | 84° |